sensor_id;sensor_type;location;lat;lon;timestamp;P1;durP1;ratioP1;P2;durP2;ratioP2
68353;SDS011;55274;43.060;25.618;2023-03-01T00:01:04;3.38;;;2.50;;
68353;SDS011;55274;43.060;25.618;2023-03-01T00:03:31;3.40;;;2.10;;
68353;SDS011;55274;43.060;25.618;2023-03-01T00:05:58;4.82;;;2.60;;
68353;SDS011;55274;43.060;25.618;2023-03-01T00:08:24;10.05;;;3.60;;
68353;SDS011;55274;43.060;25.618;2023-03-01T00:10:59;14.65;;;6.70;;
68353;SDS011;55274;43.060;25.618;2023-03-01T00:13:46;21.70;;;9.88;;
68353;SDS011;55274;43.060;25.618;2023-03-01T00:16:14;19.55;;;7.38;;
68353;SDS011;55274;43.060;25.618;2023-03-01T00:18:41;13.50;;;4.95;;
68353;SDS011;55274;43.060;25.618;2023-03-01T00:21:07;4.57;;;2.67;;
68353;SDS011;55274;43.060;25.618;2023-03-01T00:23:33;7.90;;;3.15;;
68353;SDS011;55274;43.060;25.618;2023-03-01T00:25:59;5.50;;;2.97;;
68353;SDS011;55274;43.060;25.618;2023-03-01T00:28:25;8.23;;;3.75;;
68353;SDS011;55274;43.060;25.618;2023-03-01T00:30:51;4.57;;;3.00;;
68353;SDS011;55274;43.060;25.618;2023-03-01T00:33:17;5.68;;;2.70;;
68353;SDS011;55274;43.060;25.618;2023-03-01T00:35:44;4.10;;;2.30;;
68353;SDS011;55274;43.060;25.618;2023-03-01T00:38:10;3.95;;;1.90;;
68353;SDS011;55274;43.060;25.618;2023-03-01T00:40:36;4.03;;;2.10;;
68353;SDS011;55274;43.060;25.618;2023-03-01T00:43:02;4.47;;;2.40;;
68353;SDS011;55274;43.060;25.618;2023-03-01T00:45:28;4.22;;;2.72;;
68353;SDS011;55274;43.060;25.618;2023-03-01T00:47:56;5.70;;;3.38;;
68353;SDS011;55274;43.060;25.618;2023-03-01T00:50:23;5.88;;;3.22;;
68353;SDS011;55274;43.060;25.618;2023-03-01T00:52:53;5.38;;;2.63;;
68353;SDS011;55274;43.060;25.618;2023-03-01T00:55:19;5.57;;;2.83;;
68353;SDS011;55274;43.060;25.618;2023-03-01T00:57:45;5.35;;;2.70;;
68353;SDS011;55274;43.060;25.618;2023-03-01T01:00:11;4.43;;;2.60;;
68353;SDS011;55274;43.060;25.618;2023-03-01T01:02:37;3.60;;;2.50;;
68353;SDS011;55274;43.060;25.618;2023-03-01T01:05:03;3.50;;;2.40;;
68353;SDS011;55274;43.060;25.618;2023-03-01T01:07:29;3.97;;;2.63;;
68353;SDS011;55274;43.060;25.618;2023-03-01T01:09:55;5.82;;;2.70;;
68353;SDS011;55274;43.060;25.618;2023-03-01T01:12:21;4.40;;;2.67;;
68353;SDS011;55274;43.060;25.618;2023-03-01T01:14:47;4.57;;;2.67;;
68353;SDS011;55274;43.060;25.618;2023-03-01T01:17:13;4.63;;;2.53;;
68353;SDS011;55274;43.060;25.618;2023-03-01T01:19:39;7.72;;;3.53;;
68353;SDS011;55274;43.060;25.618;2023-03-01T01:22:04;6.55;;;4.20;;
68353;SDS011;55274;43.060;25.618;2023-03-01T01:24:30;7.13;;;3.50;;
68353;SDS011;55274;43.060;25.618;2023-03-01T01:26:56;8.95;;;4.75;;
68353;SDS011;55274;43.060;25.618;2023-03-01T01:29:22;7.10;;;4.00;;
68353;SDS011;55274;43.060;25.618;2023-03-01T01:31:48;5.45;;;3.45;;
68353;SDS011;55274;43.060;25.618;2023-03-01T01:34:15;8.45;;;3.83;;
68353;SDS011;55274;43.060;25.618;2023-03-01T01:36:42;6.60;;;4.00;;
68353;SDS011;55274;43.060;25.618;2023-03-01T01:39:08;5.32;;;3.50;;
68353;SDS011;55274;43.060;25.618;2023-03-01T01:41:38;4.32;;;2.35;;
68353;SDS011;55274;43.060;25.618;2023-03-01T01:44:22;7.63;;;3.05;;
68353;SDS011;55274;43.060;25.618;2023-03-01T01:51:59;4.68;;;2.47;;
68353;SDS011;55274;43.060;25.618;2023-03-01T01:54:37;3.47;;;2.53;;
68353;SDS011;55274;43.060;25.618;2023-03-01T01:57:12;2.80;;;1.95;;
68353;SDS011;55274;43.060;25.618;2023-03-01T01:59:43;4.88;;;2.38;;
68353;SDS011;55274;43.060;25.618;2023-03-01T02:02:13;3.15;;;2.45;;
68353;SDS011;55274;43.060;25.618;2023-03-01T02:04:39;5.10;;;2.38;;
68353;SDS011;55274;43.060;25.618;2023-03-01T02:07:16;3.70;;;2.08;;
68353;SDS011;55274;43.060;25.618;2023-03-01T02:09:45;3.15;;;2.45;;
68353;SDS011;55274;43.060;25.618;2023-03-01T02:12:16;4.97;;;2.47;;
68353;SDS011;55274;43.060;25.618;2023-03-01T02:14:45;3.45;;;2.10;;
68353;SDS011;55274;43.060;25.618;2023-03-01T02:17:11;4.45;;;1.95;;
68353;SDS011;55274;43.060;25.618;2023-03-01T02:27:26;3.70;;;2.50;;
68353;SDS011;55274;43.060;25.618;2023-03-01T02:30:02;4.93;;;1.98;;
68353;SDS011;55274;43.060;25.618;2023-03-01T02:32:28;3.60;;;2.40;;
68353;SDS011;55274;43.060;25.618;2023-03-01T02:34:54;4.32;;;2.60;;
68353;SDS011;55274;43.060;25.618;2023-03-01T02:37:21;4.57;;;2.92;;
68353;SDS011;55274;43.060;25.618;2023-03-01T02:39:51;3.65;;;2.85;;
68353;SDS011;55274;43.060;25.618;2023-03-01T02:42:25;3.25;;;1.80;;
68353;SDS011;55274;43.060;25.618;2023-03-01T02:44:55;4.55;;;2.53;;
68353;SDS011;55274;43.060;25.618;2023-03-01T02:47:21;3.45;;;2.42;;
68353;SDS011;55274;43.060;25.618;2023-03-01T02:49:47;4.30;;;2.65;;
68353;SDS011;55274;43.060;25.618;2023-03-01T02:55:07;2.92;;;2.38;;
68353;SDS011;55274;43.060;25.618;2023-03-01T02:57:36;4.35;;;2.42;;
68353;SDS011;55274;43.060;25.618;2023-03-01T03:00:05;3.55;;;2.20;;
68353;SDS011;55274;43.060;25.618;2023-03-01T03:02:34;2.80;;;2.20;;
68353;SDS011;55274;43.060;25.618;2023-03-01T03:07:35;3.97;;;2.40;;
68353;SDS011;55274;43.060;25.618;2023-03-01T03:10:03;4.07;;;2.47;;
68353;SDS011;55274;43.060;25.618;2023-03-01T03:12:29;3.45;;;2.58;;
68353;SDS011;55274;43.060;25.618;2023-03-01T03:14:55;3.42;;;2.72;;
68353;SDS011;55274;43.060;25.618;2023-03-01T03:17:21;3.80;;;2.40;;
68353;SDS011;55274;43.060;25.618;2023-03-01T03:19:47;3.35;;;2.42;;
68353;SDS011;55274;43.060;25.618;2023-03-01T03:22:13;3.53;;;2.53;;
68353;SDS011;55274;43.060;25.618;2023-03-01T03:24:38;3.65;;;2.60;;
68353;SDS011;55274;43.060;25.618;2023-03-01T03:27:04;4.10;;;2.67;;
68353;SDS011;55274;43.060;25.618;2023-03-01T03:29:31;7.07;;;2.67;;
68353;SDS011;55274;43.060;25.618;2023-03-01T03:31:57;3.25;;;2.10;;
68353;SDS011;55274;43.060;25.618;2023-03-01T03:34:23;3.90;;;2.50;;
68353;SDS011;55274;43.060;25.618;2023-03-01T03:36:56;3.88;;;2.70;;
68353;SDS011;55274;43.060;25.618;2023-03-01T03:39:24;4.35;;;2.80;;
68353;SDS011;55274;43.060;25.618;2023-03-01T03:41:52;4.05;;;2.38;;
68353;SDS011;55274;43.060;25.618;2023-03-01T03:44:18;3.90;;;2.88;;
68353;SDS011;55274;43.060;25.618;2023-03-01T03:46:45;5.85;;;2.80;;
68353;SDS011;55274;43.060;25.618;2023-03-01T03:49:11;5.97;;;2.60;;
68353;SDS011;55274;43.060;25.618;2023-03-01T03:51:37;4.60;;;2.60;;
68353;SDS011;55274;43.060;25.618;2023-03-01T03:54:02;9.70;;;3.30;;
68353;SDS011;55274;43.060;25.618;2023-03-01T03:56:28;3.97;;;2.85;;
68353;SDS011;55274;43.060;25.618;2023-03-01T03:58:54;4.70;;;2.95;;
68353;SDS011;55274;43.060;25.618;2023-03-01T04:01:38;5.65;;;2.55;;
68353;SDS011;55274;43.060;25.618;2023-03-01T04:04:23;4.05;;;2.88;;
68353;SDS011;55274;43.060;25.618;2023-03-01T04:06:48;4.93;;;2.50;;
68353;SDS011;55274;43.060;25.618;2023-03-01T04:09:14;6.05;;;2.97;;
68353;SDS011;55274;43.060;25.618;2023-03-01T04:11:40;4.47;;;2.70;;
68353;SDS011;55274;43.060;25.618;2023-03-01T04:14:06;4.07;;;2.75;;
68353;SDS011;55274;43.060;25.618;2023-03-01T04:16:32;7.85;;;3.20;;
68353;SDS011;55274;43.060;25.618;2023-03-01T04:18:57;2.83;;;2.17;;
68353;SDS011;55274;43.060;25.618;2023-03-01T04:21:24;4.30;;;2.38;;
68353;SDS011;55274;43.060;25.618;2023-03-01T04:23:50;4.30;;;2.95;;
68353;SDS011;55274;43.060;25.618;2023-03-01T04:26:18;4.78;;;2.67;;
68353;SDS011;55274;43.060;25.618;2023-03-01T04:28:45;4.82;;;2.53;;
68353;SDS011;55274;43.060;25.618;2023-03-01T04:31:14;4.40;;;2.70;;
68353;SDS011;55274;43.060;25.618;2023-03-01T04:33:48;4.38;;;2.83;;
68353;SDS011;55274;43.060;25.618;2023-03-01T04:36:16;7.63;;;2.65;;
68353;SDS011;55274;43.060;25.618;2023-03-01T04:38:43;7.50;;;2.47;;
68353;SDS011;55274;43.060;25.618;2023-03-01T04:41:13;3.97;;;2.70;;
68353;SDS011;55274;43.060;25.618;2023-03-01T04:43:40;5.15;;;3.05;;
68353;SDS011;55274;43.060;25.618;2023-03-01T04:46:07;5.90;;;4.00;;
68353;SDS011;55274;43.060;25.618;2023-03-01T04:48:36;5.75;;;3.55;;
68353;SDS011;55274;43.060;25.618;2023-03-01T04:51:03;7.57;;;3.95;;
68353;SDS011;55274;43.060;25.618;2023-03-01T04:53:29;6.82;;;4.10;;
68353;SDS011;55274;43.060;25.618;2023-03-01T04:55:55;8.82;;;4.80;;
68353;SDS011;55274;43.060;25.618;2023-03-01T04:58:25;8.23;;;4.30;;
68353;SDS011;55274;43.060;25.618;2023-03-01T05:00:52;6.18;;;3.85;;
68353;SDS011;55274;43.060;25.618;2023-03-01T05:03:18;9.13;;;4.10;;
68353;SDS011;55274;43.060;25.618;2023-03-01T05:05:47;10.52;;;3.90;;
68353;SDS011;55274;43.060;25.618;2023-03-01T05:08:14;6.90;;;3.75;;
68353;SDS011;55274;43.060;25.618;2023-03-01T05:10:44;9.15;;;4.43;;
68353;SDS011;55274;43.060;25.618;2023-03-01T05:13:12;8.02;;;4.53;;
68353;SDS011;55274;43.060;25.618;2023-03-01T05:15:38;8.43;;;4.75;;
68353;SDS011;55274;43.060;25.618;2023-03-01T05:18:04;9.68;;;4.80;;
68353;SDS011;55274;43.060;25.618;2023-03-01T05:20:36;8.80;;;4.95;;
68353;SDS011;55274;43.060;25.618;2023-03-01T05:23:03;8.52;;;4.70;;
68353;SDS011;55274;43.060;25.618;2023-03-01T05:25:30;7.75;;;4.47;;
68353;SDS011;55274;43.060;25.618;2023-03-01T05:28:00;10.32;;;5.25;;
68353;SDS011;55274;43.060;25.618;2023-03-01T05:30:32;12.25;;;4.65;;
68353;SDS011;55274;43.060;25.618;2023-03-01T05:32:59;9.27;;;5.10;;
68353;SDS011;55274;43.060;25.618;2023-03-01T05:35:25;8.88;;;4.82;;
68353;SDS011;55274;43.060;25.618;2023-03-01T05:37:51;13.38;;;5.50;;
68353;SDS011;55274;43.060;25.618;2023-03-01T05:40:18;10.57;;;5.45;;
68353;SDS011;55274;43.060;25.618;2023-03-01T05:42:49;8.85;;;4.72;;
68353;SDS011;55274;43.060;25.618;2023-03-01T05:45:17;9.25;;;4.85;;
68353;SDS011;55274;43.060;25.618;2023-03-01T05:47:44;11.05;;;5.30;;
68353;SDS011;55274;43.060;25.618;2023-03-01T05:52:36;11.27;;;4.97;;
68353;SDS011;55274;43.060;25.618;2023-03-01T05:55:02;9.63;;;4.97;;
68353;SDS011;55274;43.060;25.618;2023-03-01T05:57:28;9.90;;;4.53;;
68353;SDS011;55274;43.060;25.618;2023-03-01T05:59:55;11.45;;;5.30;;
68353;SDS011;55274;43.060;25.618;2023-03-01T06:02:20;9.68;;;4.18;;
68353;SDS011;55274;43.060;25.618;2023-03-01T06:04:46;10.27;;;4.30;;
68353;SDS011;55274;43.060;25.618;2023-03-01T06:07:12;10.88;;;4.85;;
68353;SDS011;55274;43.060;25.618;2023-03-01T06:09:37;15.05;;;5.28;;
68353;SDS011;55274;43.060;25.618;2023-03-01T06:12:03;10.25;;;5.05;;
68353;SDS011;55274;43.060;25.618;2023-03-01T06:14:30;19.55;;;6.53;;
68353;SDS011;55274;43.060;25.618;2023-03-01T06:16:55;10.40;;;4.85;;
68353;SDS011;55274;43.060;25.618;2023-03-01T06:19:22;9.95;;;4.55;;
68353;SDS011;55274;43.060;25.618;2023-03-01T06:21:48;9.45;;;5.10;;
68353;SDS011;55274;43.060;25.618;2023-03-01T06:24:13;12.75;;;4.95;;
68353;SDS011;55274;43.060;25.618;2023-03-01T06:26:39;10.50;;;5.57;;
68353;SDS011;55274;43.060;25.618;2023-03-01T06:29:05;9.77;;;5.05;;
68353;SDS011;55274;43.060;25.618;2023-03-01T06:31:30;9.90;;;4.60;;
68353;SDS011;55274;43.060;25.618;2023-03-01T06:33:56;14.40;;;5.40;;
68353;SDS011;55274;43.060;25.618;2023-03-01T06:36:22;13.43;;;4.65;;
68353;SDS011;55274;43.060;25.618;2023-03-01T06:38:48;10.27;;;4.95;;
68353;SDS011;55274;43.060;25.618;2023-03-01T06:41:13;9.77;;;5.40;;
68353;SDS011;55274;43.060;25.618;2023-03-01T06:43:39;13.75;;;4.88;;
68353;SDS011;55274;43.060;25.618;2023-03-01T06:46:05;10.50;;;5.00;;
68353;SDS011;55274;43.060;25.618;2023-03-01T06:48:34;10.50;;;5.30;;
68353;SDS011;55274;43.060;25.618;2023-03-01T06:51:00;14.07;;;5.47;;
68353;SDS011;55274;43.060;25.618;2023-03-01T06:53:27;9.52;;;4.95;;
68353;SDS011;55274;43.060;25.618;2023-03-01T06:55:54;14.88;;;6.10;;
68353;SDS011;55274;43.060;25.618;2023-03-01T06:58:24;13.05;;;5.78;;
68353;SDS011;55274;43.060;25.618;2023-03-01T07:00:49;13.20;;;6.10;;
68353;SDS011;55274;43.060;25.618;2023-03-01T07:03:15;11.75;;;5.72;;
68353;SDS011;55274;43.060;25.618;2023-03-01T07:05:41;10.85;;;4.53;;
68353;SDS011;55274;43.060;25.618;2023-03-01T07:08:07;12.32;;;5.40;;
68353;SDS011;55274;43.060;25.618;2023-03-01T07:10:32;12.02;;;5.68;;
68353;SDS011;55274;43.060;25.618;2023-03-01T07:12:58;13.88;;;4.90;;
68353;SDS011;55274;43.060;25.618;2023-03-01T07:15:25;12.68;;;4.57;;
68353;SDS011;55274;43.060;25.618;2023-03-01T07:17:51;12.60;;;5.20;;
68353;SDS011;55274;43.060;25.618;2023-03-01T07:20:18;14.00;;;5.88;;
68353;SDS011;55274;43.060;25.618;2023-03-01T07:22:49;15.75;;;6.38;;
68353;SDS011;55274;43.060;25.618;2023-03-01T07:25:16;14.20;;;6.07;;
68353;SDS011;55274;43.060;25.618;2023-03-01T07:27:41;13.25;;;5.47;;
68353;SDS011;55274;43.060;25.618;2023-03-01T07:30:07;13.00;;;5.25;;
68353;SDS011;55274;43.060;25.618;2023-03-01T07:32:34;11.93;;;6.38;;
68353;SDS011;55274;43.060;25.618;2023-03-01T07:35:00;12.70;;;6.32;;
68353;SDS011;55274;43.060;25.618;2023-03-01T07:37:25;14.57;;;6.47;;
68353;SDS011;55274;43.060;25.618;2023-03-01T07:39:51;14.20;;;6.07;;
68353;SDS011;55274;43.060;25.618;2023-03-01T07:42:17;14.13;;;6.25;;
68353;SDS011;55274;43.060;25.618;2023-03-01T07:44:43;17.88;;;7.90;;
68353;SDS011;55274;43.060;25.618;2023-03-01T07:47:08;17.25;;;7.47;;
68353;SDS011;55274;43.060;25.618;2023-03-01T07:49:34;15.55;;;6.78;;
68353;SDS011;55274;43.060;25.618;2023-03-01T07:52:00;18.58;;;8.10;;
68353;SDS011;55274;43.060;25.618;2023-03-01T07:54:26;16.73;;;7.80;;
68353;SDS011;55274;43.060;25.618;2023-03-01T07:56:51;20.98;;;8.85;;
68353;SDS011;55274;43.060;25.618;2023-03-01T07:59:19;30.80;;;12.30;;
68353;SDS011;55274;43.060;25.618;2023-03-01T08:01:45;21.65;;;9.57;;
68353;SDS011;55274;43.060;25.618;2023-03-01T08:04:11;20.88;;;8.43;;
68353;SDS011;55274;43.060;25.618;2023-03-01T08:06:37;13.55;;;6.50;;
68353;SDS011;55274;43.060;25.618;2023-03-01T08:09:03;9.25;;;4.70;;
68353;SDS011;55274;43.060;25.618;2023-03-01T08:11:29;9.07;;;4.90;;
68353;SDS011;55274;43.060;25.618;2023-03-01T08:13:54;15.10;;;5.88;;
68353;SDS011;55274;43.060;25.618;2023-03-01T08:16:21;13.40;;;6.43;;
68353;SDS011;55274;43.060;25.618;2023-03-01T08:18:47;13.48;;;7.00;;
68353;SDS011;55274;43.060;25.618;2023-03-01T08:21:13;13.25;;;6.10;;
68353;SDS011;55274;43.060;25.618;2023-03-01T08:23:41;8.90;;;4.72;;
68353;SDS011;55274;43.060;25.618;2023-03-01T08:28:35;12.13;;;5.80;;
68353;SDS011;55274;43.060;25.618;2023-03-01T08:31:01;10.52;;;4.57;;
68353;SDS011;55274;43.060;25.618;2023-03-01T08:33:27;11.23;;;5.57;;
68353;SDS011;55274;43.060;25.618;2023-03-01T08:36:02;10.02;;;5.85;;
68353;SDS011;55274;43.060;25.618;2023-03-01T08:38:29;10.25;;;4.60;;
68353;SDS011;55274;43.060;25.618;2023-03-01T08:41:04;7.47;;;4.03;;
68353;SDS011;55274;43.060;25.618;2023-03-01T08:43:30;9.45;;;4.45;;
68353;SDS011;55274;43.060;25.618;2023-03-01T08:45:56;7.47;;;4.30;;
68353;SDS011;55274;43.060;25.618;2023-03-01T08:48:21;9.77;;;4.72;;
68353;SDS011;55274;43.060;25.618;2023-03-01T08:50:47;9.25;;;4.53;;
68353;SDS011;55274;43.060;25.618;2023-03-01T08:53:13;6.53;;;3.78;;
68353;SDS011;55274;43.060;25.618;2023-03-01T08:55:39;13.40;;;5.20;;
68353;SDS011;55274;43.060;25.618;2023-03-01T08:58:04;8.32;;;4.50;;
68353;SDS011;55274;43.060;25.618;2023-03-01T09:00:30;9.43;;;4.47;;
68353;SDS011;55274;43.060;25.618;2023-03-01T09:02:59;9.02;;;4.28;;
68353;SDS011;55274;43.060;25.618;2023-03-01T09:05:25;10.27;;;4.75;;
68353;SDS011;55274;43.060;25.618;2023-03-01T09:07:51;7.18;;;4.28;;
68353;SDS011;55274;43.060;25.618;2023-03-01T09:10:17;8.75;;;4.32;;
68353;SDS011;55274;43.060;25.618;2023-03-01T09:12:43;9.85;;;4.75;;
68353;SDS011;55274;43.060;25.618;2023-03-01T09:15:09;7.93;;;4.70;;
68353;SDS011;55274;43.060;25.618;2023-03-01T09:17:35;7.53;;;4.07;;
68353;SDS011;55274;43.060;25.618;2023-03-01T09:20:01;9.15;;;4.85;;
68353;SDS011;55274;43.060;25.618;2023-03-01T09:22:27;12.48;;;7.10;;
68353;SDS011;55274;43.060;25.618;2023-03-01T09:24:53;6.00;;;3.22;;
68353;SDS011;55274;43.060;25.618;2023-03-01T09:27:19;8.77;;;4.18;;
68353;SDS011;55274;43.060;25.618;2023-03-01T09:29:45;7.93;;;4.90;;
68353;SDS011;55274;43.060;25.618;2023-03-01T09:32:10;6.63;;;4.47;;
68353;SDS011;55274;43.060;25.618;2023-03-01T09:34:36;8.23;;;3.92;;
68353;SDS011;55274;43.060;25.618;2023-03-01T09:37:22;11.77;;;6.80;;
68353;SDS011;55274;43.060;25.618;2023-03-01T09:39:48;7.05;;;3.38;;
68353;SDS011;55274;43.060;25.618;2023-03-01T09:42:13;8.50;;;3.95;;
68353;SDS011;55274;43.060;25.618;2023-03-01T09:44:48;7.30;;;4.25;;
68353;SDS011;55274;43.060;25.618;2023-03-01T09:47:19;11.23;;;4.93;;
68353;SDS011;55274;43.060;25.618;2023-03-01T09:50:08;9.55;;;4.50;;
68353;SDS011;55274;43.060;25.618;2023-03-01T09:52:50;8.70;;;4.25;;
68353;SDS011;55274;43.060;25.618;2023-03-01T09:55:34;10.20;;;4.60;;
68353;SDS011;55274;43.060;25.618;2023-03-01T10:03:56;10.10;;;5.63;;
68353;SDS011;55274;43.060;25.618;2023-03-01T10:06:44;10.05;;;4.80;;
68353;SDS011;55274;43.060;25.618;2023-03-01T10:09:16;12.38;;;5.82;;
68353;SDS011;55274;43.060;25.618;2023-03-01T10:11:47;11.07;;;5.43;;
68353;SDS011;55274;43.060;25.618;2023-03-01T10:16:55;11.50;;;5.50;;
68353;SDS011;55274;43.060;25.618;2023-03-01T10:19:36;9.27;;;5.32;;
68353;SDS011;55274;43.060;25.618;2023-03-01T10:22:10;12.20;;;6.05;;
68353;SDS011;55274;43.060;25.618;2023-03-01T10:24:43;9.93;;;4.80;;
68353;SDS011;55274;43.060;25.618;2023-03-01T10:27:17;11.43;;;5.40;;
68353;SDS011;55274;43.060;25.618;2023-03-01T10:29:50;9.93;;;4.95;;
68353;SDS011;55274;43.060;25.618;2023-03-01T10:34:46;9.63;;;5.00;;
68353;SDS011;55274;43.060;25.618;2023-03-01T10:42:39;8.60;;;4.55;;
68353;SDS011;55274;43.060;25.618;2023-03-01T10:47:44;10.10;;;5.88;;
68353;SDS011;55274;43.060;25.618;2023-03-01T10:50:20;12.50;;;5.57;;
68353;SDS011;55274;43.060;25.618;2023-03-01T10:52:57;11.70;;;5.65;;
68353;SDS011;55274;43.060;25.618;2023-03-01T10:55:34;11.23;;;5.70;;
68353;SDS011;55274;43.060;25.618;2023-03-01T10:58:11;14.45;;;6.18;;
68353;SDS011;55274;43.060;25.618;2023-03-01T11:00:56;10.02;;;5.07;;
68353;SDS011;55274;43.060;25.618;2023-03-01T11:03:34;12.30;;;5.60;;
68353;SDS011;55274;43.060;25.618;2023-03-01T11:08:44;12.25;;;5.30;;
68353;SDS011;55274;43.060;25.618;2023-03-01T11:11:19;17.77;;;7.38;;
68353;SDS011;55274;43.060;25.618;2023-03-01T11:13:55;14.00;;;6.57;;
68353;SDS011;55274;43.060;25.618;2023-03-01T11:16:41;10.73;;;6.15;;
68353;SDS011;55274;43.060;25.618;2023-03-01T11:21:41;12.02;;;5.43;;
68353;SDS011;55274;43.060;25.618;2023-03-01T11:24:21;12.85;;;6.22;;
68353;SDS011;55274;43.060;25.618;2023-03-01T11:27:15;11.77;;;5.95;;
68353;SDS011;55274;43.060;25.618;2023-03-01T11:29:43;18.23;;;8.23;;
68353;SDS011;55274;43.060;25.618;2023-03-01T11:32:12;15.15;;;8.60;;
68353;SDS011;55274;43.060;25.618;2023-03-01T11:34:47;16.17;;;6.25;;
68353;SDS011;55274;43.060;25.618;2023-03-01T11:37:32;15.35;;;6.60;;
68353;SDS011;55274;43.060;25.618;2023-03-01T11:40:23;12.85;;;6.82;;
68353;SDS011;55274;43.060;25.618;2023-03-01T11:51:56;15.52;;;6.00;;
68353;SDS011;55274;43.060;25.618;2023-03-01T12:00:25;16.98;;;6.63;;
68353;SDS011;55274;43.060;25.618;2023-03-01T12:20:10;11.38;;;6.15;;
68353;SDS011;55274;43.060;25.618;2023-03-01T12:47:45;15.82;;;7.85;;
68353;SDS011;55274;43.060;25.618;2023-03-01T12:50:24;15.52;;;8.05;;
68353;SDS011;55274;43.060;25.618;2023-03-01T12:53:00;12.88;;;7.07;;
68353;SDS011;55274;43.060;25.618;2023-03-01T12:55:32;11.50;;;6.43;;
68353;SDS011;55274;43.060;25.618;2023-03-01T13:00:45;14.27;;;7.15;;
68353;SDS011;55274;43.060;25.618;2023-03-01T13:08:51;13.88;;;7.15;;
68353;SDS011;55274;43.060;25.618;2023-03-01T13:11:41;11.40;;;6.57;;
68353;SDS011;55274;43.060;25.618;2023-03-01T13:16:46;9.95;;;5.82;;
68353;SDS011;55274;43.060;25.618;2023-03-01T13:19:18;8.77;;;5.57;;
68353;SDS011;55274;43.060;25.618;2023-03-01T13:21:45;8.48;;;4.95;;
68353;SDS011;55274;43.060;25.618;2023-03-01T13:35:00;11.55;;;6.25;;
68353;SDS011;55274;43.060;25.618;2023-03-01T13:37:46;10.85;;;5.40;;
68353;SDS011;55274;43.060;25.618;2023-03-01T13:42:45;12.23;;;6.18;;
68353;SDS011;55274;43.060;25.618;2023-03-01T13:48:01;13.95;;;6.93;;
68353;SDS011;55274;43.060;25.618;2023-03-01T13:50:36;14.32;;;6.38;;
68353;SDS011;55274;43.060;25.618;2023-03-01T13:53:36;11.35;;;6.60;;
68353;SDS011;55274;43.060;25.618;2023-03-01T13:56:11;12.90;;;6.35;;
68353;SDS011;55274;43.060;25.618;2023-03-01T13:58:49;13.40;;;6.13;;
68353;SDS011;55274;43.060;25.618;2023-03-01T14:03:54;12.00;;;6.00;;
68353;SDS011;55274;43.060;25.618;2023-03-01T14:06:22;11.98;;;5.50;;
68353;SDS011;55274;43.060;25.618;2023-03-01T14:09:00;14.85;;;7.18;;
68353;SDS011;55274;43.060;25.618;2023-03-01T14:11:47;11.43;;;5.70;;
68353;SDS011;55274;43.060;25.618;2023-03-01T14:20:09;11.20;;;5.28;;
68353;SDS011;55274;43.060;25.618;2023-03-01T14:22:36;13.23;;;5.20;;
68353;SDS011;55274;43.060;25.618;2023-03-01T14:25:14;12.80;;;5.85;;
68353;SDS011;55274;43.060;25.618;2023-03-01T14:27:57;11.15;;;5.90;;
68353;SDS011;55274;43.060;25.618;2023-03-01T14:30:34;10.95;;;5.18;;
68353;SDS011;55274;43.060;25.618;2023-03-01T14:33:17;12.27;;;5.60;;
68353;SDS011;55274;43.060;25.618;2023-03-01T14:35:51;9.93;;;4.90;;
68353;SDS011;55274;43.060;25.618;2023-03-01T14:38:29;11.55;;;5.60;;
68353;SDS011;55274;43.060;25.618;2023-03-01T14:41:06;14.90;;;5.63;;
68353;SDS011;55274;43.060;25.618;2023-03-01T14:43:34;14.15;;;5.88;;
68353;SDS011;55274;43.060;25.618;2023-03-01T14:46:01;11.65;;;5.55;;
68353;SDS011;55274;43.060;25.618;2023-03-01T14:48:28;13.75;;;5.63;;
68353;SDS011;55274;43.060;25.618;2023-03-01T14:50:55;14.68;;;5.20;;
68353;SDS011;55274;43.060;25.618;2023-03-01T14:53:23;14.23;;;6.47;;
68353;SDS011;55274;43.060;25.618;2023-03-01T14:55:53;16.25;;;5.82;;
68353;SDS011;55274;43.060;25.618;2023-03-01T14:58:21;16.92;;;6.10;;
68353;SDS011;55274;43.060;25.618;2023-03-01T15:00:55;13.85;;;6.15;;
68353;SDS011;55274;43.060;25.618;2023-03-01T15:03:30;18.40;;;6.13;;
68353;SDS011;55274;43.060;25.618;2023-03-01T15:06:06;13.63;;;5.93;;
68353;SDS011;55274;43.060;25.618;2023-03-01T15:08:33;13.70;;;6.25;;
68353;SDS011;55274;43.060;25.618;2023-03-01T15:13:34;13.27;;;5.45;;
68353;SDS011;55274;43.060;25.618;2023-03-01T15:16:10;11.55;;;5.40;;
68353;SDS011;55274;43.060;25.618;2023-03-01T15:18:45;13.23;;;5.88;;
68353;SDS011;55274;43.060;25.618;2023-03-01T15:29:02;12.73;;;5.93;;
68353;SDS011;55274;43.060;25.618;2023-03-01T15:31:32;15.55;;;6.25;;
68353;SDS011;55274;43.060;25.618;2023-03-01T15:34:19;14.07;;;6.13;;
68353;SDS011;55274;43.060;25.618;2023-03-01T15:36:47;12.63;;;5.63;;
68353;SDS011;55274;43.060;25.618;2023-03-01T15:42:47;11.60;;;5.75;;
68353;SDS011;55274;43.060;25.618;2023-03-01T15:45:19;14.23;;;6.15;;
68353;SDS011;55274;43.060;25.618;2023-03-01T15:47:58;11.52;;;6.03;;
68353;SDS011;55274;43.060;25.618;2023-03-01T15:53:00;12.88;;;5.55;;
68353;SDS011;55274;43.060;25.618;2023-03-01T15:55:31;15.52;;;6.38;;
68353;SDS011;55274;43.060;25.618;2023-03-01T16:00:32;11.88;;;6.03;;
68353;SDS011;55274;43.060;25.618;2023-03-01T16:02:58;11.73;;;5.63;;
68353;SDS011;55274;43.060;25.618;2023-03-01T16:05:33;11.55;;;5.82;;
68353;SDS011;55274;43.060;25.618;2023-03-01T16:08:02;12.07;;;5.97;;
68353;SDS011;55274;43.060;25.618;2023-03-01T16:10:29;15.45;;;6.30;;
68353;SDS011;55274;43.060;25.618;2023-03-01T16:12:56;16.60;;;6.15;;
68353;SDS011;55274;43.060;25.618;2023-03-01T16:15:23;14.68;;;6.88;;
68353;SDS011;55274;43.060;25.618;2023-03-01T16:17:54;13.48;;;6.68;;
68353;SDS011;55274;43.060;25.618;2023-03-01T16:20:20;14.27;;;6.63;;
68353;SDS011;55274;43.060;25.618;2023-03-01T16:22:47;14.93;;;6.80;;
68353;SDS011;55274;43.060;25.618;2023-03-01T16:25:14;13.52;;;6.80;;
68353;SDS011;55274;43.060;25.618;2023-03-01T16:27:42;14.93;;;7.25;;
68353;SDS011;55274;43.060;25.618;2023-03-01T16:30:10;14.55;;;7.00;;
68353;SDS011;55274;43.060;25.618;2023-03-01T16:32:37;18.00;;;7.10;;
68353;SDS011;55274;43.060;25.618;2023-03-01T16:35:04;15.90;;;7.75;;
68353;SDS011;55274;43.060;25.618;2023-03-01T16:37:32;14.05;;;8.15;;
68353;SDS011;55274;43.060;25.618;2023-03-01T16:39:58;16.52;;;7.93;;
68353;SDS011;55274;43.060;25.618;2023-03-01T16:42:24;15.82;;;8.13;;
68353;SDS011;55274;43.060;25.618;2023-03-01T16:44:54;18.67;;;8.02;;
68353;SDS011;55274;43.060;25.618;2023-03-01T16:47:21;17.55;;;7.32;;
68353;SDS011;55274;43.060;25.618;2023-03-01T16:49:47;19.25;;;9.05;;
68353;SDS011;55274;43.060;25.618;2023-03-01T16:52:16;16.52;;;8.18;;
68353;SDS011;55274;43.060;25.618;2023-03-01T16:54:41;16.45;;;7.90;;
68353;SDS011;55274;43.060;25.618;2023-03-01T16:57:07;19.35;;;8.10;;
68353;SDS011;55274;43.060;25.618;2023-03-01T16:59:33;15.95;;;7.80;;
68353;SDS011;55274;43.060;25.618;2023-03-01T17:01:59;18.02;;;7.93;;
68353;SDS011;55274;43.060;25.618;2023-03-01T17:04:25;19.35;;;8.80;;
68353;SDS011;55274;43.060;25.618;2023-03-01T17:06:50;21.88;;;8.90;;
68353;SDS011;55274;43.060;25.618;2023-03-01T17:09:16;14.32;;;7.50;;
68353;SDS011;55274;43.060;25.618;2023-03-01T17:11:42;20.15;;;8.98;;
68353;SDS011;55274;43.060;25.618;2023-03-01T17:14:08;20.85;;;8.93;;
68353;SDS011;55274;43.060;25.618;2023-03-01T17:16:34;22.85;;;8.82;;
68353;SDS011;55274;43.060;25.618;2023-03-01T17:19:00;18.80;;;8.27;;